Time;durP1;ratioP1;P1;durP2;ratioP2;P2;SDS_P1;SDS_P2;PMS_P1;PMS_P2;Temp;Humidity;BMP_temperature;BMP_pressure;BME280_temperature;BME280_humidity;BME280_pressure;Samples;Min_cycle;Max_cycle;Signal;HPM_P1;HPM_P2
2023/04/05 00:00:35;;;;;;;;;4.00;4.00;;;;;2.46;57.87;100682.53;5119923;28;9012;-58
2023/04/05 00:03:03;;;;;;;;;4.00;4.00;;;;;2.35;58.06;100682.91;5120055;28;8819;-58
2023/04/05 00:05:33;;;;;;;;;2.60;1.40;;;;;2.23;58.13;100683.34;5120176;28;8816;-59
2023/04/05 00:08:01;;;;;;;;;3.00;3.00;;;;;2.11;57.97;100675.84;5120036;28;8823;-58
2023/04/05 00:10:28;;;;;;;;;1.80;0.40;;;;;2.03;58.43;100683.13;5119734;28;9482;-59
2023/04/05 00:12:56;;;;;;;;;1.40;1.40;;;;;1.93;58.56;100679.09;5119467;28;8812;-58
2023/04/05 00:15:24;;;;;;;;;4.40;4.40;;;;;1.85;59.44;100680.25;5120253;28;9498;-60
2023/04/05 00:17:52;;;;;;;;;5.60;4.40;;;;;1.78;59.55;100681.38;5119915;28;8946;-60
2023/04/05 00:20:20;;;;;;;;;6.00;5.20;;;;;1.72;59.10;100681.56;5119962;28;8905;-60
2023/04/05 00:22:49;;;;;;;;;3.80;3.80;;;;;1.66;59.04;100684.41;5120139;28;8846;-58
2023/04/05 00:25:17;;;;;;;;;3.60;3.60;;;;;1.60;59.09;100677.56;5120235;28;8850;-58
2023/04/05 00:27:45;;;;;;;;;5.80;4.60;;;;;1.58;59.24;100674.13;5119821;28;9543;-60
2023/04/05 00:30:19;;;;;;;;;1.00;1.00;;;;;1.56;59.61;100675.94;5119705;28;8840;-60
2023/04/05 00:32:47;;;;;;;;;1.40;1.00;;;;;1.53;59.01;100670.78;5119996;28;8902;-60
2023/04/05 00:35:15;;;;;;;;;3.80;3.80;;;;;1.49;59.52;100668.31;5119652;28;8962;-58
2023/04/05 00:37:43;;;;;;;;;3.80;3.80;;;;;1.45;59.55;100671.94;5119684;28;8859;-60
2023/04/05 00:40:10;;;;;;;;;4.60;4.00;;;;;1.43;59.60;100678.97;5119429;28;8846;-60
2023/04/05 00:42:38;;;;;;;;;1.40;1.40;;;;;1.40;59.30;100672.09;5120666;28;8820;-60
2023/04/05 00:45:06;;;;;;;;;3.80;3.80;;;;;1.38;59.32;100670.41;5119323;28;8816;-60
2023/04/05 00:47:33;;;;;;;;;4.00;4.00;;;;;1.35;59.77;100668.75;5119367;28;8870;-58
2023/04/05 00:50:01;;;;;;;;;3.00;3.00;;;;;1.29;59.64;100663.69;5119447;28;8824;-60
2023/04/05 00:52:29;;;;;;;;;3.00;3.00;;;;;1.25;60.08;100667.31;5119197;28;8824;-60
2023/04/05 00:54:57;;;;;;;;;2.40;1.40;;;;;1.19;59.79;100664.00;5119088;28;8824;-60
2023/04/05 00:57:25;;;;;;;;;3.40;3.40;;;;;1.14;59.96;100665.94;5119071;28;9721;-59
2023/04/05 00:59:52;;;;;;;;;4.00;4.00;;;;;1.08;60.04;100663.47;5119118;28;8824;-61
2023/04/05 01:02:20;;;;;;;;;1.00;1.00;;;;;1.04;60.57;100662.72;5119426;28;8843;-60
2023/04/05 01:04:48;;;;;;;;;1.00;1.00;;;;;1.00;60.69;100663.69;5119557;28;8830;-61
2023/04/05 01:07:18;;;;;;;;;1.40;1.40;;;;;0.98;60.61;100664.66;5119518;28;9503;-60
2023/04/05 01:09:47;;;;;;;;;2.40;2.20;;;;;0.96;60.30;100662.06;5119008;28;8836;-60
2023/04/05 01:12:15;;;;;;;;;4.00;3.40;;;;;0.95;60.71;100659.50;5119189;28;8832;-61
2023/04/05 01:14:44;;;;;;;;;5.20;5.20;;;;;0.94;60.21;100663.03;5119517;28;8944;-60
2023/04/05 01:17:12;;;;;;;;;4.00;3.00;;;;;0.92;60.62;100660.44;5118577;28;8832;-60
2023/04/05 01:19:41;;;;;;;;;5.80;4.80;;;;;0.92;60.24;100657.81;5118593;28;8824;-61
2023/04/05 01:22:13;;;;;;;;;0.80;0.60;;;;;0.93;60.58;100666.56;5118923;28;8804;-61
2023/04/05 01:24:41;;;;;;;;;1.00;1.00;;;;;0.93;60.51;100656.06;5118718;28;9469;-61
2023/04/05 01:27:09;;;;;;;;;2.20;1.80;;;;;0.91;60.33;100650.84;5118778;28;9466;-60
2023/04/05 01:29:37;;;;;;;;;0.00;0.00;;;;;0.88;60.38;100653.59;5118564;28;8840;-61
2023/04/05 01:32:05;;;;;;;;;3.00;1.40;;;;;0.85;60.44;100647.56;5118192;28;8896;-61
2023/04/05 01:34:33;;;;;;;;;3.00;3.00;;;;;0.83;60.68;100637.13;5118600;28;8816;-61
2023/04/05 01:37:00;;;;;;;;;5.20;4.40;;;;;0.80;61.06;100645.09;5118215;28;8812;-60
2023/04/05 01:39:28;;;;;;;;;3.80;3.00;;;;;0.77;60.59;100633.84;5118395;28;8836;-61
2023/04/05 01:41:56;;;;;;;;;4.00;4.00;;;;;0.75;60.59;100633.88;5118765;28;8852;-61
2023/04/05 01:44:23;;;;;;;;;3.00;3.00;;;;;0.73;60.90;100634.81;5118920;28;8824;-61
2023/04/05 01:46:51;;;;;;;;;4.00;4.00;;;;;0.69;61.07;100639.28;5118418;28;8834;-61
2023/04/05 01:49:19;;;;;;;;;4.00;3.00;;;;;0.68;61.25;100644.59;5118496;28;8824;-61
2023/04/05 01:51:47;;;;;;;;;3.20;3.20;;;;;0.69;60.60;100643.69;5118042;28;8827;-61
2023/04/05 01:54:15;;;;;;;;;0.00;0.00;;;;;0.66;60.74;100643.75;5117957;28;8804;-61
2023/04/05 01:56:42;;;;;;;;;2.20;1.00;;;;;0.62;61.30;100631.66;5117859;28;8853;-60
2023/04/05 01:59:10;;;;;;;;;5.60;4.00;;;;;0.57;61.21;100639.66;5117306;28;8861;-61
2023/04/05 02:01:38;;;;;;;;;3.80;3.80;;;;;0.53;61.08;100643.25;5118135;28;8836;-57
2023/04/05 02:04:06;;;;;;;;;0.00;0.00;;;;;0.48;61.60;100632.03;5118055;28;8851;-60
2023/04/05 02:06:34;;;;;;;;;3.00;1.80;;;;;0.46;61.39;100638.22;5117952;28;8832;-60
2023/04/05 02:09:01;;;;;;;;;2.80;2.60;;;;;0.43;61.62;100626.06;5117437;28;8847;-61
2023/04/05 02:11:29;;;;;;;;;4.00;4.00;;;;;0.41;61.26;100624.41;5117815;28;8836;-59
2023/04/05 02:13:56;;;;;;;;;1.40;0.20;;;;;0.39;61.54;100624.44;5117588;28;8844;-61
2023/04/05 02:16:25;;;;;;;;;3.00;3.00;;;;;0.39;62.13;100623.59;5117676;28;8886;-61
2023/04/05 02:18:56;;;;;;;;;3.00;1.00;;;;;0.37;61.47;100620.13;5116998;28;8824;-59
2023/04/05 02:21:24;;;;;;;;;2.80;2.80;;;;;0.33;61.84;100621.97;5117731;28;8840;-58
2023/04/05 02:23:52;;;;;;;;;3.20;3.00;;;;;0.30;61.76;100618.56;5117746;28;8828;-59
2023/04/05 02:26:20;;;;;;;;;3.20;3.00;;;;;0.25;61.91;100618.72;5117499;28;8934;-58
2023/04/05 02:28:48;;;;;;;;;3.00;3.00;;;;;0.21;62.13;100619.72;5117732;28;8808;-58
2023/04/05 02:31:16;;;;;;;;;2.20;2.20;;;;;0.19;61.96;100618.03;5117437;28;8824;-57
2023/04/05 02:33:43;;;;;;;;;2.60;2.60;;;;;0.16;62.35;100623.34;5117764;28;8943;-57
2023/04/05 02:36:12;;;;;;;;;3.20;3.20;;;;;0.14;62.58;100619.91;5117347;28;8839;-60
2023/04/05 02:38:40;;;;;;;;;3.00;3.00;;;;;0.11;62.36;100620.00;5116927;28;8824;-60
2023/04/05 02:41:08;;;;;;;;;3.00;3.00;;;;;0.10;62.37;100618.28;5117166;28;8905;-61
2023/04/05 02:43:36;;;;;;;;;2.60;1.80;;;;;0.07;62.37;100613.09;5117281;28;8860;-60
2023/04/05 02:46:04;;;;;;;;;2.60;2.60;;;;;0.05;62.14;100615.78;5116859;28;8844;-60
2023/04/05 02:48:31;;;;;;;;;1.40;1.00;;;;;0.05;62.62;100614.91;5116715;28;8828;-60
2023/04/05 02:50:59;;;;;;;;;1.00;1.00;;;;;0.05;62.37;100609.69;5116610;28;8827;-59
2023/04/05 02:53:27;;;;;;;;;3.00;3.00;;;;;0.04;61.93;100611.47;5116903;28;8856;-61
2023/04/05 02:55:55;;;;;;;;;3.00;3.00;;;;;0.03;62.25;100612.31;5116930;28;8854;-61
2023/04/05 02:58:23;;;;;;;;;2.60;1.40;;;;;0.03;62.49;100612.31;5116525;28;8812;-60
2023/04/05 03:00:53;;;;;;;;;2.20;2.20;;;;;0.00;62.30;100609.81;5116806;28;8855;-60
2023/04/05 03:03:20;;;;;;;;;4.40;3.40;;;;;-0.02;61.78;100609.00;5116945;28;8820;-60
2023/04/05 03:05:48;;;;;;;;;0.40;0.40;;;;;-0.02;62.09;100610.75;5117237;28;8832;-58
2023/04/05 03:08:18;;;;;;;;;1.80;1.00;;;;;-0.05;62.72;100608.22;5116985;28;8820;-61
2023/04/05 03:10:46;;;;;;;;;1.40;1.00;;;;;-0.05;62.76;100609.06;5116971;28;8828;-60
2023/04/05 03:13:14;;;;;;;;;5.00;3.60;;;;;-0.06;62.28;100607.34;5116663;28;8851;-60
2023/04/05 03:15:41;;;;;;;;;3.60;3.20;;;;;-0.06;62.16;100604.72;5116548;28;8842;-58
2023/04/05 03:18:10;;;;;;;;;3.40;3.40;;;;;-0.07;62.56;100604.78;5116391;28;8929;-60
2023/04/05 03:20:39;;;;;;;;;3.60;3.00;;;;;-0.08;62.73;100605.66;5115779;28;8855;-60
2023/04/05 03:23:07;;;;;;;;;3.20;1.00;;;;;-0.10;62.62;100604.00;5115629;28;8835;-60
2023/04/05 03:25:36;;;;;;;;;2.60;2.60;;;;;-0.14;62.40;100598.00;5116247;28;8842;-60
2023/04/05 03:28:04;;;;;;;;;2.20;2.20;;;;;-0.17;62.74;100603.28;5115933;28;8836;-60
2023/04/05 03:30:32;;;;;;;;;4.40;3.80;;;;;-0.19;62.57;100609.47;5115992;28;8936;-61
2023/04/05 03:33:01;;;;;;;;;1.00;1.00;;;;;-0.22;62.92;100605.19;5116363;28;8828;-59
2023/04/05 03:35:29;;;;;;;;;4.00;3.20;;;;;-0.24;62.71;100604.34;5116189;28;8827;-58
2023/04/05 03:37:57;;;;;;;;;4.40;3.60;;;;;-0.26;62.79;100611.38;5116679;28;9640;-60
2023/04/05 03:40:24;;;;;;;;;3.60;3.20;;;;;-0.25;62.63;100600.00;5116176;28;8839;-60
2023/04/05 03:42:52;;;;;;;;;1.40;1.40;;;;;-0.24;62.97;100603.50;5115893;28;9482;-61
2023/04/05 03:45:20;;;;;;;;;1.00;1.00;;;;;-0.29;62.86;100595.78;5115740;28;8811;-60
2023/04/05 03:47:50;;;;;;;;;0.80;0.80;;;;;-0.34;63.28;100602.88;5115813;28;8836;-60
2023/04/05 03:50:18;;;;;;;;;3.00;3.00;;;;;-0.36;62.92;100603.81;5115773;28;8920;-60
2023/04/05 03:52:46;;;;;;;;;1.00;1.00;;;;;-0.38;62.81;100601.22;5115890;28;8836;-61
2023/04/05 03:55:15;;;;;;;;;1.00;1.00;;;;;-0.41;63.29;100601.31;5115923;28;8824;-60
2023/04/05 03:57:43;;;;;;;;;3.60;3.00;;;;;-0.43;62.62;100599.63;5115784;28;8812;-61
2023/04/05 04:00:13;;;;;;;;;3.20;3.20;;;;;-0.45;63.01;100598.81;5115415;28;8889;-61
2023/04/05 04:02:40;;;;;;;;;3.00;3.00;;;;;-0.48;63.24;100596.28;5115606;28;8850;-60
2023/04/05 04:05:08;;;;;;;;;4.00;4.00;;;;;-0.52;63.09;100599.84;5115846;28;8947;-61
2023/04/05 04:07:36;;;;;;;;;2.60;2.60;;;;;-0.55;63.21;100603.38;5116046;28;8832;-61
2023/04/05 04:10:04;;;;;;;;;2.20;2.20;;;;;-0.57;63.43;100597.34;5115907;28;8820;-60
2023/04/05 04:12:32;;;;;;;;;2.80;2.80;;;;;-0.60;63.21;100597.44;5115503;28;9506;-60
2023/04/05 04:14:59;;;;;;;;;3.00;3.00;;;;;-0.61;63.31;100600.09;5115740;28;8827;-61
2023/04/05 04:17:27;;;;;;;;;1.40;1.40;;;;;-0.60;63.57;100592.22;5115904;28;8862;-60
2023/04/05 04:19:55;;;;;;;;;3.40;3.00;;;;;-0.56;63.89;100587.72;5115867;28;8958;-61
2023/04/05 04:22:25;;;;;;;;;1.00;1.00;;;;;-0.56;63.46;100591.22;5115550;28;8867;-61
2023/04/05 04:24:54;;;;;;;;;2.20;1.00;;;;;-0.60;62.93;100592.22;5116151;28;8824;-61
2023/04/05 04:27:24;;;;;;;;;1.80;1.00;;;;;-0.65;63.36;100588.84;5115274;28;8808;-60
2023/04/05 04:30:00;;;;;;;;;2.20;1.00;;;;;-0.68;63.78;100593.28;5115611;28;8816;-61
2023/04/05 04:32:46;;;;;;;;;2.20;1.00;;;;;-0.72;63.48;100591.63;5115802;28;8840;-61
2023/04/05 04:35:16;;;;;;;;;1.40;1.00;;;;;-0.78;63.75;100591.78;5119195;28;8854;-61
2023/04/05 04:37:45;;;;;;;;;2.20;2.20;;;;;-0.84;63.55;100584.09;5119040;28;8828;-61
2023/04/05 04:40:15;;;;;;;;;0.60;0.20;;;;;-0.86;64.04;100588.50;5118938;28;8913;-60
2023/04/05 04:42:45;;;;;;;;;3.20;3.00;;;;;-0.90;63.71;100592.06;5119297;28;8847;-59
2023/04/05 04:45:15;;;;;;;;;1.00;0.40;;;;;-0.93;64.02;100599.97;5118974;28;8836;-60
2023/04/05 04:47:43;;;;;;;;;1.40;1.40;;;;;-0.93;64.26;100592.16;5118884;28;8824;-61
2023/04/05 04:50:11;;;;;;;;;1.80;1.80;;;;;-0.93;64.05;100600.81;5119455;28;8884;-60
2023/04/05 04:52:38;;;;;;;;;0.60;0.00;;;;;-0.93;64.06;100599.97;5119337;28;9528;-61
2023/04/05 04:55:06;;;;;;;;;3.20;3.00;;;;;-0.93;63.86;100593.00;5119154;28;8847;-59
2023/04/05 04:57:33;;;;;;;;;4.40;4.40;;;;;-0.91;64.62;100593.81;5118469;28;8824;-61
2023/04/05 05:00:02;;;;;;;;;3.60;3.00;;;;;-0.90;63.88;100598.16;5118632;28;8831;-61
2023/04/05 05:02:31;;;;;;;;;3.80;3.00;;;;;-0.88;63.49;100600.72;5118347;28;8854;-60
2023/04/05 05:04:58;;;;;;;;;2.60;2.20;;;;;-0.88;63.87;100596.38;5118212;28;8866;-61
2023/04/05 05:07:26;;;;;;;;;1.20;1.20;;;;;-0.85;63.89;100596.28;5118653;28;8836;-61
2023/04/05 05:09:54;;;;;;;;;3.00;3.00;;;;;-0.82;63.94;100590.13;5118232;28;8835;-61
2023/04/05 05:12:22;;;;;;;;;1.00;1.00;;;;;-0.80;63.24;100586.59;5118715;28;8836;-60
2023/04/05 05:14:50;;;;;;;;;3.00;3.00;;;;;-0.77;63.98;100593.50;5117161;28;8859;-61
2023/04/05 05:17:17;;;;;;;;;0.60;0.00;;;;;-0.74;63.67;100598.66;5118334;28;8828;-61
2023/04/05 05:19:45;;;;;;;;;2.20;1.00;;;;;-0.71;63.75;100595.97;5118220;28;8832;-59
2023/04/05 05:22:13;;;;;;;;;3.00;2.60;;;;;-0.68;64.07;100585.44;5118132;28;8838;-61
2023/04/05 05:24:41;;;;;;;;;3.40;3.00;;;;;-0.65;63.52;100601.03;5118128;28;8847;-61
2023/04/05 05:27:09;;;;;;;;;1.00;1.00;;;;;-0.65;63.56;100596.69;5118010;28;8824;-60
2023/04/05 05:29:36;;;;;;;;;2.60;1.80;;;;;-0.62;63.61;100587.91;5117970;28;8848;-61
2023/04/05 05:32:04;;;;;;;;;2.60;1.80;;;;;-0.58;63.75;100597.38;5117498;28;8843;-58
2023/04/05 05:34:32;;;;;;;;;3.40;3.00;;;;;-0.53;63.59;100592.91;5117011;28;8830;-60
2023/04/05 05:37:00;;;;;;;;;3.00;3.00;;;;;-0.49;63.27;100592.78;5117259;28;8979;-60
2023/04/05 05:39:28;;;;;;;;;2.20;2.20;;;;;-0.42;63.00;100593.47;5117000;28;8858;-60
2023/04/05 05:41:55;;;;;;;;;3.00;3.00;;;;;-0.35;62.69;100595.06;5116910;28;8844;-61
2023/04/05 05:44:23;;;;;;;;;6.20;5.20;;;;;-0.29;63.06;100592.28;5116124;28;8827;-60
2023/04/05 05:46:51;;;;;;;;;1.80;1.80;;;;;-0.25;63.43;100584.31;5116974;28;8828;-61
2023/04/05 05:49:19;;;;;;;;;0.60;0.60;;;;;-0.18;62.78;100585.03;5116913;28;8820;-61
2023/04/05 05:51:48;;;;;;;;;3.00;3.00;;;;;-0.10;62.19;100589.16;5116677;28;8858;-61
2023/04/05 05:54:16;;;;;;;;;3.60;3.60;;;;;-0.03;62.43;100581.13;5116978;28;8820;-61
2023/04/05 05:56:44;;;;;;;;;1.40;1.40;;;;;0.06;62.38;100588.72;5117161;28;8921;-59
2023/04/05 05:59:12;;;;;;;;;6.00;5.60;;;;;0.19;62.36;100584.88;5116674;28;8820;-61
2023/04/05 06:01:41;;;;;;;;;5.20;4.80;;;;;0.37;62.07;100586.09;5115648;28;8841;-60
2023/04/05 06:04:09;;;;;;;;;5.80;5.80;;;;;0.54;61.54;100597.81;5116594;28;8835;-60
2023/04/05 06:06:37;;;;;;;;;4.40;3.60;;;;;0.68;61.95;100593.03;5116543;28;8815;-61
2023/04/05 06:09:05;;;;;;;;;5.40;2.20;;;;;0.85;61.59;100598.63;5116253;28;8839;-60
2023/04/05 06:11:32;;;;;;;;;3.60;3.00;;;;;0.95;60.77;100599.19;5116760;28;8882;-61
2023/04/05 06:14:03;;;;;;;;;3.80;3.80;;;;;1.05;61.87;100593.63;5116892;28;8842;-61
2023/04/05 06:16:31;;;;;;;;;4.80;4.40;;;;;1.15;61.10;100583.72;5115998;28;8827;-60
2023/04/05 06:18:59;;;;;;;;;3.00;3.00;;;;;1.20;61.46;100587.91;5116435;28;8834;-61
2023/04/05 06:21:27;;;;;;;;;3.20;3.20;;;;;1.30;61.02;100580.63;5115466;28;9436;-61
2023/04/05 06:23:55;;;;;;;;;7.40;6.40;;;;;1.37;60.31;100584.75;5115064;28;8828;-61
2023/04/05 06:26:25;;;;;;;;;5.60;4.00;;;;;1.45;60.99;100580.13;5114968;28;8812;-61
2023/04/05 06:28:54;;;;;;;;;3.60;3.40;;;;;1.51;60.90;100572.91;5115169;28;8867;-61
2023/04/05 06:31:22;;;;;;;;;6.00;4.00;;;;;1.58;60.87;100582.28;5114169;28;8929;-60
2023/04/05 06:33:50;;;;;;;;;6.00;5.20;;;;;1.73;60.36;100573.91;5113401;28;8850;-61
2023/04/05 06:36:18;;;;;;;;;6.00;6.00;;;;;1.87;60.11;100571.66;5113598;28;8836;-60
2023/04/05 06:38:46;;;;;;;;;4.00;3.20;;;;;2.00;60.62;100577.34;5114351;28;8850;-61
2023/04/05 06:41:13;;;;;;;;;3.40;3.40;;;;;2.18;59.48;100566.19;5114304;28;8945;-59
2023/04/05 06:43:41;;;;;;;;;1.40;1.40;;;;;2.38;59.34;100563.69;5114438;28;8831;-59
2023/04/05 06:46:11;;;;;;;;;3.40;3.40;;;;;2.54;59.42;100570.97;5114526;28;8973;-60
2023/04/05 06:48:39;;;;;;;;;4.60;3.80;;;;;2.71;59.77;100563.31;5114118;28;8851;-60
2023/04/05 06:51:06;;;;;;;;;3.40;3.40;;;;;2.86;59.34;100562.72;5114499;28;8858;-61
2023/04/05 06:53:34;;;;;;;;;3.80;3.60;;;;;3.00;59.52;100559.53;5115195;28;9578;-59
2023/04/05 06:56:02;;;;;;;;;4.80;4.00;;;;;3.12;59.19;100559.06;5114289;28;8823;-61
2023/04/05 06:58:31;;;;;;;;;8.20;5.60;;;;;3.25;59.30;100558.50;5114527;28;8931;-61
2023/04/05 07:00:59;;;;;;;;;5.60;4.00;;;;;3.38;59.21;100551.84;5114208;28;8977;-59
2023/04/05 07:03:27;;;;;;;;;4.40;4.40;;;;;3.57;58.95;100557.22;5114986;28;8848;-61
2023/04/05 07:05:55;;;;;;;;;7.00;6.60;;;;;3.72;58.75;100558.28;5114384;28;8954;-61
2023/04/05 07:08:23;;;;;;;;;4.00;4.00;;;;;3.90;57.95;100546.09;5114324;28;8844;-61
2023/04/05 07:10:51;;;;;;;;;7.00;6.00;;;;;4.04;57.91;100546.38;5113938;28;8887;-61
2023/04/05 07:13:19;;;;;;;;;6.80;6.40;;;;;4.17;57.73;100547.53;5113843;28;8819;-61
2023/04/05 07:15:47;;;;;;;;;5.20;4.00;;;;;4.30;57.75;100548.69;5114565;28;8831;-61
2023/04/05 07:18:15;;;;;;;;;7.80;7.40;;;;;4.47;57.18;100546.16;5113752;28;8824;-61
2023/04/05 07:20:43;;;;;;;;;8.60;8.20;;;;;4.63;57.47;100544.56;5114050;28;8853;-60
2023/04/05 07:23:11;;;;;;;;;9.00;7.00;;;;;4.79;57.33;100540.28;5113940;28;8836;-61
2023/04/05 07:25:39;;;;;;;;;5.60;4.80;;;;;4.94;57.00;100539.56;5114156;28;8836;-60
2023/04/05 07:28:07;;;;;;;;;9.00;9.00;;;;;5.08;56.96;100537.13;5114730;28;9563;-61
2023/04/05 07:30:35;;;;;;;;;9.00;8.20;;;;;5.22;56.97;100546.09;5114674;28;8851;-60
2023/04/05 07:33:03;;;;;;;;;3.00;3.00;;;;;5.37;56.97;100540.06;5114667;28;8850;-58
2023/04/05 07:35:31;;;;;;;;;7.20;6.80;;;;;5.53;56.93;100538.38;5114971;28;8862;-61
2023/04/05 07:38:00;;;;;;;;;8.60;8.20;;;;;5.67;56.22;100525.31;5114182;28;8824;-61
2023/04/05 07:40:27;;;;;;;;;7.40;6.60;;;;;5.84;56.15;100535.09;5114205;28;8830;-61
2023/04/05 07:42:55;;;;;;;;;9.00;9.00;;;;;5.94;56.07;100531.91;5115383;28;9864;-60
2023/04/05 07:45:23;;;;;;;;;7.40;6.60;;;;;6.09;55.85;100535.53;5113920;28;8832;-60
2023/04/05 07:47:51;;;;;;;;;7.00;7.00;;;;;6.21;55.67;100525.16;5113258;28;8831;-61
2023/04/05 07:50:19;;;;;;;;;7.40;6.40;;;;;6.34;55.47;100526.22;5112942;28;8843;-60
2023/04/05 07:52:47;;;;;;;;;4.00;4.00;;;;;6.49;55.18;100530.69;5113358;28;8847;-61
2023/04/05 07:55:16;;;;;;;;;6.00;6.00;;;;;6.63;55.43;100522.00;5112872;28;8958;-60
2023/04/05 07:57:43;;;;;;;;;6.00;4.00;;;;;6.76;55.09;100523.06;5113618;28;8834;-61
2023/04/05 08:00:12;;;;;;;;;7.80;7.40;;;;;6.85;55.11;100520.78;5113719;28;8831;-61
2023/04/05 08:02:40;;;;;;;;;10.00;10.00;;;;;7.01;54.96;100512.81;5112811;28;8815;-60
2023/04/05 08:05:08;;;;;;;;;4.00;4.00;;;;;7.14;54.61;100512.03;5113901;28;8839;-61
2023/04/05 08:07:36;;;;;;;;;7.20;7.20;;;;;7.25;54.56;100512.28;5113822;28;9008;-61
2023/04/05 08:10:05;;;;;;;;;7.40;6.80;;;;;7.39;54.50;100512.34;5116287;28;8954;-60
2023/04/05 08:12:33;;;;;;;;;5.20;1.80;;;;;7.55;54.28;100514.94;5116944;28;8874;-61
2023/04/05 08:15:03;;;;;;;;;1.40;1.00;;;;;7.70;54.15;100509.63;5116679;28;8831;-61
2023/04/05 08:17:31;;;;;;;;;6.80;6.60;;;;;7.84;53.66;100513.16;5115933;28;8948;-62
2023/04/05 08:19:59;;;;;;;;;9.20;7.00;;;;;7.96;53.78;100515.09;5116020;28;8832;-62
2023/04/05 08:22:27;;;;;;;;;6.00;6.00;;;;;8.08;53.43;100510.84;5116279;28;8831;-60
2023/04/05 08:24:55;;;;;;;;;9.60;8.20;;;;;8.17;53.16;100508.50;5116218;28;8823;-61
2023/04/05 08:27:23;;;;;;;;;6.00;3.80;;;;;8.25;53.21;100508.03;5115927;28;8842;-61
2023/04/05 08:29:51;;;;;;;;;4.80;4.00;;;;;8.34;52.93;100503.03;5116213;28;8848;-61
2023/04/05 08:32:19;;;;;;;;;6.00;6.00;;;;;8.39;52.98;100497.44;5115665;28;8819;-60
2023/04/05 08:34:47;;;;;;;;;5.20;5.20;;;;;8.46;52.96;100504.94;5116562;28;8851;-61
2023/04/05 08:37:15;;;;;;;;;6.20;6.00;;;;;8.60;52.40;100494.28;5116433;28;8843;-61
2023/04/05 08:39:43;;;;;;;;;9.00;7.00;;;;;8.76;52.19;100495.06;5117177;28;8986;-62
2023/04/05 08:42:11;;;;;;;;;9.00;6.50;;;;;8.93;52.30;100489.53;5116797;28;8844;-61
2023/04/05 08:44:39;;;;;;;;;7.80;7.20;;;;;9.08;51.88;100485.88;5116995;28;8832;-62
2023/04/05 08:47:06;;;;;;;;;7.50;6.75;;;;;9.18;51.94;100491.44;5117419;28;8965;-59
2023/04/05 08:49:35;;;;;;;;;8.75;7.75;;;;;9.25;52.14;100484.75;5117742;28;8836;-59
2023/04/05 08:52:03;;;;;;;;;1.00;0.00;;;;;9.33;51.94;100482.47;5117440;28;8840;-59
2023/04/05 08:54:31;;;;;;;;;6.50;6.00;;;;;9.45;51.48;100485.16;5117486;28;9755;-59
2023/04/05 08:57:00;;;;;;;;;6.00;4.00;;;;;9.56;51.67;100482.63;5116943;28;8851;-60
2023/04/05 08:59:27;;;;;;;;;7.50;7.50;;;;;9.69;51.13;100477.34;5116703;28;8955;-59
2023/04/05 09:01:56;;;;;;;;;3.50;3.00;;;;;9.83;50.89;100479.91;5117042;28;8962;-59
2023/04/05 09:04:27;;;;;;;;;6.25;6.25;;;;;9.99;51.23;100477.91;5117754;28;9583;-60
2023/04/05 09:06:54;;;;;;;;;6.50;5.50;;;;;10.14;50.83;100472.44;5117237;28;8913;-60
2023/04/05 09:09:23;;;;;;;;;5.50;5.50;;;;;10.36;50.26;100472.63;5116090;28;8847;-60
2023/04/05 09:11:51;;;;;;;;;8.00;6.25;;;;;10.60;49.90;100468.25;5115769;28;8840;-60
2023/04/05 09:14:19;;;;;;;;;6.25;6.00;;;;;10.87;49.67;100470.72;5115563;28;9771;-59
2023/04/05 09:16:47;;;;;;;;;1.00;1.00;;;;;11.10;49.17;100478.78;5116460;28;9626;-60
2023/04/05 09:19:15;;;;;;;;;4.00;4.00;;;;;11.31;49.43;100481.66;5116123;28;9566;-60
2023/04/05 09:21:44;;;;;;;;;7.50;6.75;;;;;11.45;48.96;100471.66;5117000;28;8854;-59
2023/04/05 09:24:12;;;;;;;;;6.25;6.00;;;;;11.64;48.99;100469.34;5116784;28;8835;-60
2023/04/05 09:26:40;;;;;;;;;3.25;3.00;;;;;11.89;49.17;100469.19;5117111;28;8869;-60
2023/04/05 09:29:07;;;;;;;;;6.00;6.00;;;;;12.22;48.38;100456.75;5116704;28;8823;-60
2023/04/05 09:31:35;;;;;;;;;5.50;4.00;;;;;12.54;48.46;100470.25;5116925;28;8839;-60
2023/04/05 09:34:04;;;;;;;;;6.50;6.00;;;;;12.76;47.93;100468.41;5116505;28;8840;-59
2023/04/05 09:36:32;;;;;;;;;6.00;6.00;;;;;12.79;47.37;100456.63;5115625;28;8831;-60
2023/04/05 09:39:00;;;;;;;;;5.00;5.00;;;;;12.73;47.70;100457.13;5114267;28;8846;-60
2023/04/05 09:41:28;;;;;;;;;4.75;3.75;;;;;12.50;48.43;100460.78;5114402;28;8851;-60
2023/04/05 09:43:56;;;;;;;;;7.00;6.00;;;;;12.28;48.39;100456.28;5115379;28;8828;-62
2023/04/05 09:46:24;;;;;;;;;7.00;6.00;;;;;12.15;48.21;100460.88;5113667;28;9482;-62
2023/04/05 09:48:52;;;;;;;;;6.75;6.00;;;;;11.98;48.71;100464.00;5113616;28;8863;-60
2023/04/05 09:51:20;;;;;;;;;6.75;6.75;;;;;11.93;49.30;100464.47;5113971;28;8844;-60
2023/04/05 09:53:48;;;;;;;;;9.00;8.50;;;;;12.01;48.93;100462.91;5113138;28;8832;-62
2023/04/05 09:56:16;;;;;;;;;6.00;6.00;;;;;12.18;48.71;100457.97;5113315;28;8847;-62
2023/04/05 09:58:44;;;;;;;;;6.00;4.00;;;;;12.61;47.53;100458.13;5113004;28;8823;-59
2023/04/05 10:01:12;;;;;;;;;4.50;4.00;;;;;13.25;45.99;100446.59;5113341;28;8856;-60
2023/04/05 10:03:43;;;;;;;;;8.50;7.00;;;;;14.08;44.75;100435.84;5112521;28;8820;-60
2023/04/05 10:06:11;;;;;;;;;8.50;6.25;;;;;15.00;43.48;100439.22;5113097;28;9505;-62
2023/04/05 10:08:39;;;;;;;;;8.75;5.75;;;;;15.87;41.85;100432.91;5113961;28;8832;-62
2023/04/05 10:11:07;;;;;;;;;9.00;7.50;;;;;16.52;41.61;100423.88;5114388;28;8918;-62
2023/04/05 10:13:35;;;;;;;;;7.75;6.50;;;;;17.02;40.63;100424.31;5113215;28;8828;-61
2023/04/05 10:16:03;;;;;;;;;12.00;10.00;;;;;17.59;40.47;100419.38;5113914;28;8862;-62
2023/04/05 10:18:33;;;;;;;;;9.00;8.50;;;;;18.02;40.08;100405.94;5114522;28;8854;-61
2023/04/05 10:21:00;;;;;;;;;10.20;8.60;;;;;18.52;39.52;100415.00;5114252;28;8836;-61
2023/04/05 10:23:29;;;;;;;;;7.40;7.40;;;;;18.88;38.84;100405.72;5113687;28;8843;-60
2023/04/05 10:25:57;;;;;;;;;8.60;6.40;;;;;19.27;38.75;100406.88;5113480;28;8840;-60
2023/04/05 10:28:26;;;;;;;;;6.80;6.40;;;;;19.52;38.31;100405.06;5113908;28;8889;-62
2023/04/05 10:30:55;;;;;;;;;9.60;9.60;;;;;19.63;38.51;100402.03;5114234;28;8856;-61
2023/04/05 10:33:23;;;;;;;;;7.00;7.00;;;;;19.91;37.78;100400.69;5115010;28;8984;-60
2023/04/05 10:35:53;;;;;;;;;10.20;10.20;;;;;20.32;38.10;100403.19;5114518;28;8815;-61
2023/04/05 10:38:21;;;;;;;;;10.40;9.80;;;;;20.35;37.82;100410.09;5114487;28;9489;-63
2023/04/05 10:40:50;;;;;;;;;6.60;6.40;;;;;20.49;37.61;100401.28;5114377;28;8856;-61
2023/04/05 10:43:18;;;;;;;;;10.80;9.60;;;;;20.75;37.32;100394.59;5114625;28;8901;-61
2023/04/05 10:45:46;;;;;;;;;9.60;8.80;;;;;21.19;36.43;100390.31;5113404;28;8847;-61
2023/04/05 10:48:14;;;;;;;;;14.00;11.40;;;;;21.64;36.29;100385.75;5114380;28;9489;-61
2023/04/05 10:50:42;;;;;;;;;8.40;8.40;;;;;21.87;35.81;100391.19;5114113;28;9711;-62
2023/04/05 10:53:10;;;;;;;;;11.00;10.20;;;;;22.18;36.12;100386.50;5113607;28;8839;-60
2023/04/05 10:55:38;;;;;;;;;10.00;10.00;;;;;22.31;35.23;100390.25;5113949;28;8832;-59
2023/04/05 10:58:07;;;;;;;;;9.80;8.80;;;;;22.47;35.34;100375.69;5113796;28;8962;-62
2023/04/05 11:00:35;;;;;;;;;11.00;10.00;;;;;22.73;35.33;100384.19;5113072;28;8850;-62
2023/04/05 11:03:03;;;;;;;;;11.00;9.20;;;;;23.04;35.14;100380.22;5112738;28;9622;-62
2023/04/05 11:05:32;;;;;;;;;8.00;8.00;;;;;23.26;34.54;100379.25;5113198;28;8978;-62
2023/04/05 11:08:01;;;;;;;;;10.20;10.20;;;;;23.59;34.04;100377.69;5113624;28;8843;-61
2023/04/05 11:10:28;;;;;;;;;10.40;9.40;;;;;23.82;33.95;100367.44;5114141;28;8915;-60
2023/04/05 11:12:56;;;;;;;;;9.40;9.00;;;;;24.06;33.95;100363.50;5113912;28;8972;-62
2023/04/05 11:15:26;;;;;;;;;11.00;10.20;;;;;24.35;34.26;100366.00;5113597;28;8820;-62
2023/04/05 11:17:54;;;;;;;;;8.20;8.00;;;;;24.56;32.91;100361.34;5113386;28;9097;-61
2023/04/05 11:20:22;;;;;;;;;9.80;8.60;;;;;24.73;32.74;100367.31;5113672;28;8913;-60
2023/04/05 11:22:50;;;;;;;;;11.60;11.60;;;;;24.70;32.85;100359.50;5113046;28;8850;-60
2023/04/05 11:25:18;;;;;;;;;8.80;8.80;;;;;24.69;33.23;100360.56;5113052;28;8846;-60
2023/04/05 11:27:47;;;;;;;;;11.00;10.20;;;;;24.80;32.53;100357.28;5112967;28;9521;-62
2023/04/05 11:30:15;;;;;;;;;12.40;10.60;;;;;24.65;33.15;100353.84;5113563;28;8823;-62
2023/04/05 11:32:43;;;;;;;;;4.00;3.20;;;;;24.60;33.09;100346.28;5114021;28;8851;-62
2023/04/05 11:35:11;;;;;;;;;11.60;11.40;;;;;24.69;32.76;100355.09;5114613;28;8832;-61
2023/04/05 11:37:39;;;;;;;;;9.80;9.00;;;;;24.55;32.95;100345.16;5114133;28;8893;-62
2023/04/05 11:40:07;;;;;;;;;13.00;12.80;;;;;24.45;32.99;100342.81;5113188;28;8929;-61